Time;durP1;ratioP1;P1;durP2;ratioP2;P2;SDS_P1;SDS_P2;PMS_P1;PMS_P2;Temp;Humidity;BMP_temperature;BMP_pressure;BME280_temperature;BME280_humidity;BME280_pressure;Samples;Min_cycle;Max_cycle;Signal;HPM_P1;HPM_P2
2022/04/08 10:46:05;;;;;;;7.03;2.28;;;20.80;99.90;;;;;;5050133;28;20416;-91
2022/04/08 10:48:32;;;;;;;17.75;3.10;;;20.60;99.90;;;;;;5035174;28;20037;-85
2022/04/08 10:51:18;;;;;;;6.75;2.47;;;20.50;99.90;;;;;;5030910;28;20032;-87
2022/04/08 10:53:44;;;;;;;7.07;2.20;;;20.10;99.90;;;;;;5022449;28;20018;-84
2022/04/08 10:56:18;;;;;;;10.63;3.45;;;20.20;99.90;;;;;;5029139;28;20032;-84
2022/04/08 10:58:49;;;;;;;11.93;3.33;;;20.20;99.90;;;;;;5022728;28;20033;-85
2022/04/08 11:01:15;;;;;;;22.27;3.63;;;19.80;99.90;;;;;;5027136;28;20021;-86
2022/04/08 11:03:46;;;;;;;14.10;3.05;;;19.60;99.90;;;;;;5024153;28;20104;-85
2022/04/08 11:06:18;;;;;;;8.88;2.72;;;19.50;99.90;;;;;;5032038;28;20116;-84
2022/04/08 11:08:44;;;;;;;16.17;3.35;;;19.70;99.90;;;;;;5004729;28;20076;-85
2022/04/08 11:11:13;;;;;;;9.90;2.42;;;19.90;99.90;;;;;;5011538;28;20101;-83
2022/04/08 11:13:41;;;;;;;8.57;2.80;;;19.90;99.90;;;;;;5009671;28;20053;-86
2022/04/08 11:16:07;;;;;;;9.27;2.63;;;20.00;99.90;;;;;;5016786;28;20079;-89
2022/04/08 11:18:36;;;;;;;15.90;2.92;;;20.10;99.90;;;;;;5009350;28;20022;-86
2022/04/08 11:21:02;;;;;;;8.13;2.75;;;20.40;99.90;;;;;;5008649;28;20049;-83
2022/04/08 11:23:32;;;;;;;11.35;2.80;;;20.30;99.90;;;;;;5019671;28;20018;-84
2022/04/08 11:25:58;;;;;;;5.97;2.50;;;20.20;99.90;;;;;;5012173;28;20030;-87
2022/04/08 11:28:25;;;;;;;10.27;3.13;;;20.20;99.90;;;;;;5024989;28;20018;-84
2022/04/08 11:30:58;;;;;;;10.88;2.78;;;19.80;99.90;;;;;;5008758;28;20542;-91
2022/04/08 11:33:30;;;;;;;9.85;3.13;;;19.40;99.90;;;;;;5005295;28;20505;-93
2022/04/08 11:35:58;;;;;;;9.57;2.50;;;19.20;99.90;;;;;;5014720;28;20029;-85
2022/04/08 11:38:25;;;;;;;16.65;3.75;;;19.30;99.90;;;;;;5006756;28;20030;-83
2022/04/08 11:40:57;;;;;;;13.15;2.90;;;19.40;99.90;;;;;;5011538;28;20497;-84
2022/04/08 11:43:23;;;;;;;10.60;2.63;;;19.60;99.90;;;;;;5009766;28;20026;-86
2022/04/08 11:45:51;;;;;;;11.20;3.30;;;19.80;99.90;;;;;;5023486;28;20057;-86
2022/04/08 11:48:20;;;;;;;10.27;2.78;;;19.70;99.90;;;;;;5014910;28;20026;-83
2022/04/08 11:50:47;;;;;;;10.30;2.45;;;19.50;99.90;;;;;;5007119;28;20034;-84
2022/04/08 11:53:15;;;;;;;8.40;2.78;;;19.60;99.90;;;;;;5022367;28;20026;-83
2022/04/08 11:56:00;;;;;;;8.13;2.88;;;19.70;99.90;;;;;;5006406;28;20607;-85
2022/04/08 11:58:31;;;;;;;10.95;2.20;;;19.60;99.90;;;;;;4997149;28;20030;-82
2022/04/08 12:01:03;;;;;;;9.43;2.70;;;19.20;99.90;;;;;;5000599;28;20029;-86
2022/04/08 12:03:30;;;;;;;7.60;2.70;;;19.10;99.90;;;;;;4989150;28;20023;-87
2022/04/08 12:05:57;;;;;;;12.35;2.67;;;19.20;99.90;;;;;;5000713;28;20124;-89
2022/04/08 12:08:23;;;;;;;10.63;2.80;;;19.40;99.90;;;;;;4998103;28;20084;-89
2022/04/08 12:10:57;;;;;;;10.45;2.92;;;19.40;99.90;;;;;;5002456;28;20092;-90
2022/04/08 12:13:24;;;;;;;13.85;4.25;;;19.30;99.90;;;;;;5001131;28;20081;-88
2022/04/08 12:15:54;;;;;;;9.98;3.03;;;21.00;99.90;;;;;;5003981;28;20452;-86
2022/04/08 12:18:24;;;;;;;18.60;4.30;;;21.50;99.90;;;;;;4998958;28;20022;-84
2022/04/08 12:20:55;;;;;;;9.35;3.20;;;21.40;99.90;;;;;;4994740;28;20031;-83
2022/04/08 12:23:23;;;;;;;10.07;2.88;;;21.00;99.90;;;;;;5009319;28;20117;-84
2022/04/08 12:25:54;;;;;;;14.90;3.20;;;20.60;99.90;;;;;;4992666;28;20044;-83
2022/04/08 12:28:23;;;;;;;12.20;3.17;;;20.10;99.90;;;;;;4991757;28;20022;-83
2022/04/08 12:30:50;;;;;;;14.02;3.30;;;19.60;99.90;;;;;;4994393;28;20472;-84
2022/04/08 12:33:17;;;;;;;11.15;4.28;;;19.70;99.90;;;;;;4995146;28;20766;-83
2022/04/08 12:35:46;;;;;;;13.57;2.95;;;19.80;99.90;;;;;;4992135;28;20071;-83
2022/04/08 12:38:19;;;;;;;11.25;3.72;;;20.00;99.90;;;;;;4992056;28;20037;-83
2022/04/08 12:40:45;;;;;;;;;;;20.20;99.90;;;;;;4995053;28;20125;-88
2022/04/08 12:43:11;;;;;;;10.90;2.95;;;20.40;99.90;;;;;;5005388;28;19905;-82
2022/04/08 12:45:37;;;;;;;19.33;5.38;;;20.10;99.90;;;;;;5007295;28;20050;-85
2022/04/08 12:48:03;;;;;;;11.90;3.92;;;19.70;99.90;;;;;;5004131;28;20101;-82
2022/04/08 12:50:29;;;;;;;10.55;3.08;;;19.50;99.90;;;;;;4991816;28;20030;-85
2022/04/08 12:52:55;;;;;;;11.98;3.83;;;19.40;99.90;;;;;;4996552;28;20030;-83
2022/04/08 12:55:21;;;;;;;12.45;2.85;;;19.40;99.90;;;;;;4996925;28;20022;-84
2022/04/08 12:57:48;;;;;;;11.80;4.43;;;19.60;99.90;;;;;;5008146;28;20017;-84
2022/04/08 13:00:16;;;;;;;9.48;4.30;;;19.80;99.90;;;;;;5001644;28;20053;-85
2022/04/08 13:02:48;;;;;;;23.05;8.30;;;20.00;99.90;;;;;;4998803;28;20108;-90
2022/04/08 13:05:14;;;;;;;20.67;9.60;;;20.10;99.90;;;;;;5006502;28;20445;-84
2022/04/08 13:07:40;;;;;;;15.25;6.13;;;20.20;99.90;;;;;;5004852;28;20085;-83
2022/04/08 13:10:07;;;;;;;13.15;3.28;;;20.20;99.90;;;;;;4998295;28;20050;-85
2022/04/08 13:12:37;;;;;;;25.40;9.60;;;20.40;99.90;;;;;;5001689;28;20018;-82
2022/04/08 13:15:04;;;;;;;18.50;7.68;;;20.60;99.90;;;;;;5001829;28;20088;-85
2022/04/08 13:17:41;;;;;;;13.43;2.95;;;21.00;99.90;;;;;;5001607;28;20030;-84
2022/04/08 13:20:07;;;;;;;13.18;5.38;;;21.60;99.90;;;;;;5009305;28;20069;-85
2022/04/08 13:22:34;;;;;;;14.93;3.15;;;21.90;99.90;;;;;;5006550;28;20026;-85
2022/04/08 13:25:03;;;;;;;21.77;7.32;;;21.70;99.90;;;;;;5010475;28;20030;-84
2022/04/08 13:27:29;;;;;;;18.33;7.65;;;21.40;99.90;;;;;;5019327;28;20123;-85
2022/04/08 13:29:55;;;;;;;25.35;13.35;;;21.30;99.90;;;;;;5006297;28;20118;-87
2022/04/08 13:32:21;;;;;;;9.68;3.97;;;21.40;99.90;;;;;;5005427;28;20116;-85
2022/04/08 13:34:47;;;;;;;18.20;6.55;;;21.50;99.90;;;;;;4988341;28;20682;-88
2022/04/08 13:37:13;;;;;;;18.98;6.05;;;21.30;99.90;;;;;;5005518;28;20026;-89
2022/04/08 13:39:40;;;;;;;21.25;7.78;;;21.00;99.90;;;;;;5025460;28;20034;-89
2022/04/08 13:42:11;;;;;;;23.67;8.80;;;20.70;99.90;;;;;;5036614;28;20117;-89
2022/04/08 13:44:37;;;;;;;23.53;5.77;;;20.50;99.90;;;;;;5027669;28;20054;-88
2022/04/08 13:47:04;;;;;;;17.40;6.85;;;20.50;99.90;;;;;;5011159;28;20853;-86
2022/04/08 13:49:30;;;;;;;17.83;5.25;;;20.50;99.90;;;;;;5019308;28;20022;-88
2022/04/08 13:52:02;;;;;;;17.45;8.10;;;20.30;99.90;;;;;;5003969;28;20114;-88
2022/04/08 13:54:28;;;;;;;20.85;6.63;;;20.00;99.90;;;;;;5008729;28;20029;-85
2022/04/08 13:56:56;;;;;;;21.52;9.43;;;19.80;99.90;;;;;;5024026;28;20037;-88
2022/04/08 13:59:22;;;;;;;27.85;10.20;;;19.60;99.90;;;;;;5032184;28;20026;-84
2022/04/08 14:01:48;;;;;;;23.52;8.02;;;19.50;99.90;;;;;;5005206;28;20030;-88
2022/04/08 14:04:17;;;;;;;32.60;5.95;;;19.40;99.90;;;;;;5029469;28;20037;-87
2022/04/08 14:06:46;;;;;;;36.42;17.48;;;19.30;99.90;;;;;;5001532;28;20427;-86
2022/04/08 14:09:12;;;;;;;15.48;5.70;;;19.20;99.90;;;;;;5012025;28;20029;-87
2022/04/08 14:11:38;;;;;;;37.28;16.65;;;19.40;99.90;;;;;;5004944;28;20037;-88
2022/04/08 14:14:04;;;;;;;24.58;14.43;;;19.60;99.90;;;;;;5005770;28;20116;-86
2022/04/08 14:16:30;;;;;;;28.33;12.57;;;19.60;99.90;;;;;;5001872;28;20425;-87
2022/04/08 14:18:58;;;;;;;20.48;5.38;;;19.50;99.90;;;;;;4999268;28;20041;-87
2022/04/08 14:21:24;;;;;;;18.63;7.18;;;19.50;99.90;;;;;;5021172;28;20057;-86
2022/04/08 14:23:50;;;;;;;19.92;8.23;;;19.70;99.90;;;;;;5008983;28;20048;-85
2022/04/08 14:26:16;;;;;;;20.02;8.60;;;19.70;99.90;;;;;;5001450;28;20038;-86
2022/04/08 14:28:42;;;;;;;27.63;11.35;;;19.70;99.90;;;;;;5005289;28;20029;-87
2022/04/08 14:31:09;;;;;;;23.80;9.80;;;19.60;99.90;;;;;;5012635;28;20111;-87
2022/04/08 14:33:38;;;;;;;27.65;12.02;;;19.40;99.90;;;;;;4997780;28;20018;-87
2022/04/08 14:36:06;;;;;;;21.88;7.82;;;19.10;99.90;;;;;;5003424;28;20142;-87
2022/04/08 14:38:35;;;;;;;16.98;4.75;;;19.10;99.90;;;;;;5007974;28;20095;-88
2022/04/08 14:41:02;;;;;;;26.52;10.52;;;19.00;99.90;;;;;;5006853;28;20034;-87
2022/04/08 14:43:29;;;;;;;27.50;13.45;;;18.90;99.90;;;;;;5018642;28;20022;-88
2022/04/08 14:45:55;;;;;;;20.08;5.90;;;18.80;99.90;;;;;;5000403;28;20050;-87
2022/04/08 14:48:24;;;;;;;18.63;7.28;;;18.70;99.90;;;;;;5006825;28;20165;-87
2022/04/08 14:50:50;;;;;;;29.52;10.18;;;18.70;99.90;;;;;;5023679;28;20048;-86
2022/04/08 14:53:17;;;;;;;24.70;9.63;;;18.60;99.90;;;;;;5029264;28;20026;-86
2022/04/08 14:55:50;;;;;;;24.27;9.13;;;18.60;99.90;;;;;;5019741;28;20108;-90
2022/04/08 14:58:16;;;;;;;15.88;5.10;;;18.60;99.90;;;;;;5050654;28;20027;-89
2022/04/08 15:00:42;;;;;;;18.48;9.40;;;18.50;99.90;;;;;;5017156;28;20030;-88
2022/04/08 15:03:08;;;;;;;28.90;10.48;;;19.00;99.90;;;;;;5006550;28;20031;-88
2022/04/08 15:05:34;;;;;;;20.92;8.55;;;19.70;99.90;;;;;;5008528;28;20042;-89
2022/04/08 15:08:02;;;;;;;22.70;11.10;;;19.90;99.90;;;;;;5011093;28;20565;-89
2022/04/08 15:10:31;;;;;;;20.30;6.00;;;20.30;99.90;;;;;;5008538;28;20022;-88
2022/04/08 15:12:59;;;;;;;23.10;7.97;;;20.70;99.90;;;;;;5009335;28;20038;-89
2022/04/08 15:15:25;;;;;;;14.88;5.78;;;22.40;99.90;;;;;;5023184;28;20496;-93
2022/04/08 15:17:51;;;;;;;19.00;5.28;;;23.90;99.90;;;;;;5017234;28;20656;-91
2022/04/08 15:20:18;;;;;;;21.88;8.57;;;23.10;99.90;;;;;;4987427;28;20094;-89
2022/04/08 15:22:45;;;;;;;17.38;5.60;;;22.00;99.90;;;;;;5007422;28;20427;-89
2022/04/08 15:25:11;;;;;;;19.45;7.72;;;21.70;99.90;;;;;;5011660;28;20133;-91
2022/04/08 15:27:38;;;;;;;20.15;8.13;;;21.90;99.90;;;;;;5024971;28;20022;-90
2022/04/08 15:30:05;;;;;;;21.38;8.77;;;21.10;99.90;;;;;;5026975;28;20030;-88
2022/04/08 15:32:32;;;;;;;13.93;6.13;;;20.40;99.90;;;;;;5025483;28;20026;-90
2022/04/08 15:34:58;;;;;;;23.13;9.23;;;20.00;99.90;;;;;;5010482;28;20018;-90
2022/04/08 15:37:24;;;;;;;18.95;6.28;;;19.70;99.90;;;;;;5005494;28;20494;-89
2022/04/08 15:39:52;;;;;;;24.27;7.25;;;19.50;99.90;;;;;;5034704;28;20089;-90
2022/04/08 15:42:21;;;;;;;21.13;8.13;;;19.30;99.90;;;;;;5032125;28;20447;-88
2022/04/08 15:44:47;;;;;;;17.77;7.13;;;19.40;99.90;;;;;;5051553;28;20056;-90
2022/04/08 15:47:15;;;;;;;19.90;6.47;;;19.50;99.90;;;;;;5026826;28;20457;-90
2022/04/08 15:49:42;;;;;;;15.57;6.65;;;19.50;99.90;;;;;;5017315;28;20482;-89
2022/04/08 15:52:07;;;;;;;16.42;5.00;;;19.50;99.90;;;;;;5031928;28;20061;-90
2022/04/08 15:54:37;;;;;;;11.93;4.55;;;19.20;99.90;;;;;;5037213;28;20022;-88
2022/04/08 15:57:05;;;;;;;17.05;7.75;;;18.90;99.90;;;;;;5007863;28;20061;-90
2022/04/08 15:59:31;;;;;;;25.00;7.60;;;18.70;99.90;;;;;;5014204;28;20019;-89
2022/04/08 16:01:57;;;;;;;19.20;7.25;;;18.40;99.90;;;;;;5021921;28;20049;-92
2022/04/08 16:04:23;;;;;;;22.25;7.60;;;18.20;99.90;;;;;;5019434;28;20026;-89
2022/04/08 16:06:49;;;;;;;17.08;6.28;;;18.30;99.90;;;;;;5020852;28;20102;-89
2022/04/08 16:09:19;;;;;;;21.48;7.22;;;18.20;99.90;;;;;;5025825;28;20022;-89
2022/04/08 16:11:46;;;;;;;26.90;6.50;;;18.10;99.90;;;;;;5027160;28;20040;-88
2022/04/08 16:14:24;;;;;;;15.52;6.55;;;17.80;99.90;;;;;;5028617;28;20071;-89
2022/04/08 16:16:50;;;;;;;17.67;5.72;;;17.70;99.90;;;;;;5009519;28;20037;-90
2022/04/08 16:19:16;;;;;;;20.55;6.00;;;17.50;99.90;;;;;;5048823;28;20029;-90
2022/04/08 16:21:43;;;;;;;23.73;6.53;;;17.50;99.90;;;;;;5009552;28;20030;-89
2022/04/08 16:24:09;;;;;;;21.85;6.57;;;17.40;99.90;;;;;;5016359;28;20034;-89
2022/04/08 16:26:37;;;;;;;25.13;6.70;;;17.30;99.90;;;;;;5010662;28;20026;-88
2022/04/08 16:29:08;;;;;;;16.30;6.00;;;17.30;99.90;;;;;;5036108;28;20050;-90
2022/04/08 16:31:41;;;;;;;25.13;5.43;;;17.20;99.90;;;;;;5003483;28;20410;-89
2022/04/08 16:34:16;;;;;;;19.30;5.95;;;17.10;99.90;;;;;;5014041;28;20042;-88
2022/04/08 16:36:42;;;;;;;23.10;6.75;;;17.10;99.90;;;;;;5042745;28;20084;-89
2022/04/08 16:39:09;;;;;;;26.10;6.63;;;17.20;99.90;;;;;;5032831;28;20034;-90
2022/04/08 16:41:35;;;;;;;21.05;6.70;;;17.20;99.90;;;;;;5024652;28;20022;-90
2022/04/08 16:44:01;;;;;;;18.38;6.10;;;17.30;99.90;;;;;;5022049;28;20061;-89
2022/04/08 16:46:29;;;;;;;25.67;5.68;;;17.40;99.90;;;;;;5004533;28;20425;-87
2022/04/08 16:48:55;;;;;;;21.65;6.18;;;17.30;99.90;;;;;;4987986;28;20019;-89
2022/04/08 16:51:24;;;;;;;22.05;6.20;;;17.20;99.90;;;;;;5006469;28;20022;-88
2022/04/08 16:53:50;;;;;;;19.95;5.85;;;17.10;99.90;;;;;;5015469;28;20029;-89
2022/04/08 16:56:21;;;;;;;21.30;6.45;;;17.00;99.90;;;;;;5011817;28;20030;-89
2022/04/08 16:58:52;;;;;;;33.53;5.88;;;16.90;99.90;;;;;;5030120;28;20030;-88
2022/04/08 17:01:18;;;;;;;22.38;6.03;;;16.80;99.90;;;;;;5012578;28;20080;-89
2022/04/08 17:03:45;;;;;;;18.98;5.18;;;16.70;99.90;;;;;;5013875;28;20022;-88
2022/04/08 17:06:12;;;;;;;22.45;5.53;;;16.50;99.90;;;;;;5000855;28;20126;-89
2022/04/08 17:08:39;;;;;;;28.20;5.45;;;16.40;99.90;;;;;;5008752;28;20014;-89
2022/04/08 17:11:06;;;;;;;26.17;5.80;;;16.30;99.90;;;;;;5001295;28;20049;-88
2022/04/08 17:13:33;;;;;;;15.35;5.25;;;16.30;99.90;;;;;;5004283;28;20041;-88
2022/04/08 17:15:59;;;;;;;19.63;5.05;;;16.30;99.90;;;;;;5011519;28;20488;-88
2022/04/08 17:18:25;;;;;;;21.25;6.10;;;16.20;99.90;;;;;;5007353;28;20026;-87
2022/04/08 17:20:54;;;;;;;26.52;5.82;;;16.20;99.90;;;;;;5022718;28;20476;-88
2022/04/08 17:23:20;;;;;;;27.30;6.30;;;16.10;99.90;;;;;;5030003;28;20103;-88
2022/04/08 17:25:46;;;;;;;21.83;5.65;;;16.10;99.90;;;;;;5003832;28;20050;-89
2022/04/08 17:28:14;;;;;;;29.60;7.10;;;16.00;99.90;;;;;;5013063;28;20026;-88
2022/04/08 17:30:42;;;;;;;25.70;6.32;;;16.00;99.90;;;;;;5000664;28;20034;-87
2022/04/08 17:33:10;;;;;;;32.80;5.22;;;15.90;99.90;;;;;;5021765;28;20029;-88
2022/04/08 17:35:40;;;;;;;29.67;5.78;;;15.90;99.90;;;;;;5025245;28;20026;-87
2022/04/08 17:38:07;;;;;;;20.00;5.35;;;15.90;99.90;;;;;;5028995;28;20033;-88
2022/04/08 17:40:33;;;;;;;24.63;6.15;;;15.80;99.90;;;;;;5014754;28;20026;-89
2022/04/08 17:43:04;;;;;;;21.15;5.80;;;15.80;99.90;;;;;;5004426;28;20022;-88
2022/04/08 17:45:31;;;;;;;20.85;5.25;;;15.80;99.90;;;;;;5015842;28;20551;-90
2022/04/08 17:48:00;;;;;;;25.83;6.47;;;15.80;99.90;;;;;;5004768;28;20542;-88
2022/04/08 17:50:26;;;;;;;24.45;6.13;;;15.80;99.90;;;;;;5007105;28;20018;-88
2022/04/08 17:52:56;;;;;;;21.60;5.65;;;15.70;99.90;;;;;;5019519;28;20109;-89
2022/04/08 17:55:22;;;;;;;25.83;6.45;;;15.70;99.90;;;;;;5026830;28;20030;-89
2022/04/08 17:57:49;;;;;;;28.63;6.03;;;15.70;99.90;;;;;;5005772;28;20092;-88
2022/04/08 18:00:15;;;;;;;30.27;6.65;;;15.60;99.90;;;;;;5001406;28;20448;-87
2022/04/08 18:02:41;;;;;;;30.00;6.32;;;15.50;99.90;;;;;;5008181;28;20076;-87
2022/04/08 18:05:07;;;;;;;26.55;5.97;;;15.50;99.90;;;;;;5005130;28;20030;-89
2022/04/08 18:07:34;;;;;;;29.45;5.82;;;15.50;99.90;;;;;;5023708;28;20018;-87
2022/04/08 18:10:00;;;;;;;24.50;5.28;;;15.50;99.90;;;;;;5045237;28;20033;-89
2022/04/08 18:12:26;;;;;;;26.98;5.85;;;15.50;99.90;;;;;;5005691;28;20037;-87
2022/04/08 18:14:51;;;;;;;31.00;5.90;;;15.50;99.90;;;;;;5013790;28;20018;-87
2022/04/08 18:17:18;;;;;;;26.95;5.07;;;15.40;99.90;;;;;;5016888;28;20030;-89
2022/04/08 18:19:46;;;;;;;25.17;6.13;;;15.40;99.90;;;;;;5007516;28;20112;-87
2022/04/08 18:22:13;;;;;;;36.05;6.13;;;15.50;99.90;;;;;;5010670;28;20485;-87
2022/04/08 18:24:46;;;;;;;21.73;5.35;;;15.50;99.90;;;;;;5012283;28;20092;-88
2022/04/08 18:27:15;;;;;;;;;;;15.50;99.90;;;;;;5013930;28;20057;-88
2022/04/08 18:29:44;;;;;;;27.70;5.72;;;15.50;99.90;;;;;;5000992;28;19984;-88
2022/04/08 18:32:10;;;;;;;31.15;5.88;;;15.60;99.90;;;;;;5000365;28;20026;-88
2022/04/08 18:34:41;;;;;;;23.27;5.97;;;15.60;99.90;;;;;;4984140;28;20038;-88
2022/04/08 18:37:10;;;;;;;37.75;7.90;;;15.70;99.90;;;;;;5004053;28;20033;-87
2022/04/08 18:39:37;;;;;;;25.63;8.15;;;15.70;99.90;;;;;;4993933;28;20021;-88
2022/04/08 18:42:07;;;;;;;18.90;5.18;;;15.70;99.90;;;;;;5002749;28;20025;-89
2022/04/08 18:44:36;;;;;;;19.83;6.00;;;15.70;99.90;;;;;;5005235;28;20042;-89
2022/04/08 18:47:07;;;;;;;26.77;5.95;;;15.70;99.90;;;;;;5020761;28;20052;-88
2022/04/08 18:49:34;;;;;;;29.08;5.50;;;15.70;99.90;;;;;;5031910;28;20022;-88
2022/04/08 18:52:01;;;;;;;24.63;5.35;;;15.70;99.90;;;;;;5005178;28;20027;-88
2022/04/08 18:54:27;;;;;;;32.83;6.25;;;15.70;99.90;;;;;;5023134;28;20060;-86
2022/04/08 18:56:53;;;;;;;28.02;6.25;;;15.60;99.90;;;;;;5022579;28;20377;-91
2022/04/08 18:59:20;;;;;;;24.55;5.45;;;15.50;99.90;;;;;;5018679;28;20023;-91
2022/04/08 19:01:49;;;;;;;22.50;5.93;;;15.50;99.90;;;;;;4991999;28;20042;-93
2022/04/08 19:04:46;;;;;;;27.92;6.20;;;15.50;99.90;;;;;;5016711;28;20116;-93
2022/04/08 19:07:26;;;;;;;24.38;6.38;;;15.60;99.90;;;;;;5026607;28;20049;-93
2022/04/08 19:09:51;;;;;;;24.90;6.38;;;15.60;99.90;;;;;;5021773;28;20058;-93
2022/04/08 19:12:17;;;;;;;28.60;5.95;;;15.60;99.90;;;;;;5007214;28;20026;-91
2022/04/08 19:14:46;;;;;;;25.73;6.28;;;15.60;99.90;;;;;;5007164;28;20156;-86
2022/04/08 19:17:15;;;;;;;18.67;5.07;;;15.60;99.90;;;;;;5034470;28;20044;-94
2022/04/08 19:19:44;;;;;;;29.02;6.22;;;15.70;99.90;;;;;;5012435;28;20027;-91
2022/04/08 19:22:11;;;;;;;24.33;5.10;;;15.70;99.90;;;;;;5014371;28;20174;-93
2022/04/08 19:24:38;;;;;;;21.58;5.40;;;15.80;99.90;;;;;;5024171;28;20025;-93
2022/04/08 19:27:05;;;;;;;31.48;5.35;;;15.80;99.90;;;;;;5019221;28;20045;-93
2022/04/08 19:29:33;;;;;;;24.02;4.75;;;15.70;99.90;;;;;;5013318;28;20025;-92
2022/04/08 19:31:58;;;;;;;21.77;5.80;;;15.80;99.90;;;;;;5020650;28;20548;-94
2022/04/08 19:34:24;;;;;;;26.48;6.20;;;15.90;99.90;;;;;;5050690;28;20025;-92
2022/04/08 19:36:50;;;;;;;30.08;7.93;;;15.90;99.90;;;;;;5012856;28;20030;-93
2022/04/08 19:39:16;;;;;;;21.75;6.10;;;15.90;99.90;;;;;;5017027;28;20474;-93
2022/04/08 19:41:41;;;;;;;24.08;6.18;;;15.90;99.90;;;;;;5020079;28;20058;-89
2022/04/08 19:44:08;;;;;;;26.83;6.15;;;15.90;99.90;;;;;;5027557;28;20042;-91
2022/04/08 19:46:35;;;;;;;29.77;6.00;;;15.70;99.90;;;;;;5018826;28;20021;-91
2022/04/08 19:49:01;;;;;;;22.92;5.40;;;15.70;99.90;;;;;;5006701;28;20034;-91
2022/04/08 19:51:28;;;;;;;20.88;5.43;;;15.70;99.90;;;;;;5020364;28;20030;-90
2022/04/08 19:53:54;;;;;;;27.92;6.70;;;15.70;99.90;;;;;;5027313;28;20014;-89
2022/04/08 19:56:19;;;;;;;26.35;5.70;;;15.70;99.90;;;;;;5018112;28;20029;-91
2022/04/08 19:58:45;;;;;;;28.15;6.50;;;15.70;99.90;;;;;;5005518;28;20023;-92
2022/04/08 20:01:11;;;;;;;21.35;6.03;;;15.70;99.90;;;;;;5008931;28;20197;-91
2022/04/08 20:03:40;;;;;;;31.08;5.90;;;15.70;99.90;;;;;;5029786;28;20100;-90
2022/04/08 20:06:09;;;;;;;19.35;5.25;;;15.70;99.90;;;;;;5008884;28;20073;-90
2022/04/08 20:08:36;;;;;;;25.55;5.93;;;15.70;99.90;;;;;;5020682;28;20535;-89
2022/04/08 20:11:03;;;;;;;21.15;5.72;;;15.70;99.90;;;;;;5017697;28;20038;-90
2022/04/08 20:13:30;;;;;;;22.38;5.25;;;15.70;99.90;;;;;;5022339;28;20030;-94
2022/04/08 20:15:56;;;;;;;26.30;5.68;;;15.70;99.90;;;;;;5008868;28;20029;-90
2022/04/08 20:18:22;;;;;;;21.35;5.85;;;15.70;99.90;;;;;;5024766;28;20029;-92
2022/04/08 20:20:48;;;;;;;26.00;5.65;;;15.70;99.90;;;;;;5029328;28;20038;-91
2022/04/08 20:23:15;;;;;;;27.75;5.57;;;15.80;99.90;;;;;;5031506;28;20044;-88
2022/04/08 20:25:42;;;;;;;25.77;5.57;;;15.80;99.90;;;;;;5028681;28;20049;-90
2022/04/08 20:28:10;;;;;;;29.83;6.70;;;15.70;99.90;;;;;;5029391;28;20022;-88
2022/04/08 20:30:36;;;;;;;18.80;5.25;;;15.70;99.90;;;;;;5004949;28;20093;-88
2022/04/08 20:33:03;;;;;;;24.30;5.10;;;15.80;99.90;;;;;;5022667;28;20062;-88
2022/04/08 20:35:29;;;;;;;20.08;5.13;;;15.90;99.90;;;;;;4996883;28;20065;-90
2022/04/08 20:37:56;;;;;;;34.10;5.65;;;15.80;99.90;;;;;;4997121;28;20014;-87
2022/04/08 20:40:22;;;;;;;24.35;6.10;;;15.90;99.90;;;;;;4993307;28;20019;-90
2022/04/08 20:42:48;;;;;;;24.60;5.35;;;15.90;99.90;;;;;;5001630;28;20030;-89
2022/04/08 20:45:14;;;;;;;34.47;6.22;;;15.90;99.90;;;;;;4994845;28;20050;-89
2022/04/08 20:47:40;;;;;;;27.58;5.38;;;15.90;99.90;;;;;;5007781;28;20073;-92
2022/04/08 20:50:07;;;;;;;28.45;5.75;;;15.90;99.90;;;;;;4999838;28;20038;-93
2022/04/08 20:52:35;;;;;;;27.02;5.00;;;15.90;99.90;;;;;;5009982;28;20026;-92
2022/04/08 20:55:05;;;;;;;23.55;6.07;;;15.90;99.90;;;;;;5002034;28;20034;-91
2022/04/08 20:57:31;;;;;;;26.85;6.15;;;15.90;99.90;;;;;;5001089;28;20097;-89
2022/04/08 20:59:57;;;;;;;28.40;5.90;;;15.90;99.90;;;;;;5013637;28;20030;-89
2022/04/08 21:02:24;;;;;;;26.75;5.32;;;15.90;99.90;;;;;;5002705;28;20025;-91
2022/04/08 21:04:52;;;;;;;32.30;6.18;;;15.90;99.90;;;;;;4993735;28;20040;-92
2022/04/08 21:07:21;;;;;;;20.70;4.50;;;15.90;99.90;;;;;;5008820;28;20018;-90
2022/04/08 21:09:48;;;;;;;25.65;5.75;;;15.90;99.90;;;;;;5002007;28;20087;-89
2022/04/08 21:12:18;;;;;;;18.65;5.00;;;15.90;99.90;;;;;;5020827;28;20489;-94
2022/04/08 21:14:47;;;;;;;26.75;5.43;;;15.90;99.90;;;;;;5004973;28;20778;-90
2022/04/08 21:17:12;;;;;;;22.02;4.93;;;16.00;99.90;;;;;;5002814;28;20026;-89
2022/04/08 21:19:47;;;;;;;26.15;6.88;;;16.00;99.90;;;;;;5000215;28;20149;-93
2022/04/08 21:22:13;;;;;;;22.58;5.82;;;16.00;99.90;;;;;;5009209;28;20026;-92
2022/04/08 21:24:40;;;;;;;22.88;5.18;;;16.00;99.90;;;;;;5003823;28;20061;-94
2022/04/08 21:27:09;;;;;;;33.47;5.18;;;16.00;99.90;;;;;;5013652;28;20379;-84
2022/04/08 21:29:47;;;;;;;25.23;5.18;;;16.00;99.90;;;;;;5013579;28;20030;-89
2022/04/08 21:32:14;;;;;;;22.38;5.03;;;15.90;99.90;;;;;;5026607;28;20041;-96
2022/04/08 21:34:49;;;;;;;19.48;4.68;;;15.90;99.90;;;;;;5010250;28;20027;-96
2022/04/08 21:37:17;;;;;;;16.58;4.38;;;15.90;99.90;;;;;;5065070;28;20116;-96
2022/04/08 21:39:47;;;;;;;22.85;5.20;;;15.90;99.90;;;;;;5045793;28;20117;-96
2022/04/08 21:42:33;;;;;;;20.10;4.40;;;15.90;99.90;;;;;;5045100;28;20098;-96
2022/04/08 21:45:09;;;;;;;28.17;5.07;;;15.90;99.90;;;;;;5026954;28;20069;-93
2022/04/08 21:47:36;;;;;;;18.42;4.85;;;15.90;99.90;;;;;;5030212;28;20026;-96
2022/04/08 21:50:04;;;;;;;17.52;4.80;;;15.80;99.90;;;;;;5050898;28;20010;-95
2022/04/08 21:52:30;;;;;;;23.75;5.53;;;15.80;99.90;;;;;;5013289;28;20031;-96
2022/04/08 21:57:49;;;;;;;21.95;4.32;;;15.70;99.90;;;;;;5027998;28;20436;-94
2022/04/08 22:00:43;;;;;;;19.25;4.63;;;15.70;99.90;;;;;;5029763;28;20037;-95
2022/04/08 22:03:33;;;;;;;25.90;5.07;;;15.70;99.90;;;;;;5022602;28;20034;-96
2022/04/08 22:06:03;;;;;;;16.92;4.88;;;15.70;99.90;;;;;;5017671;28;20026;-95
2022/04/08 22:08:30;;;;;;;22.20;4.30;;;15.70;99.90;;;;;;5036634;28;20025;-94
2022/04/08 22:11:02;;;;;;;20.60;4.45;;;15.70;99.90;;;;;;5029658;28;20108;-95
2022/04/08 22:13:37;;;;;;;16.27;4.55;;;15.70;99.90;;;;;;5029645;28;20018;-96
2022/04/08 22:16:07;;;;;;;18.92;4.70;;;15.70;99.90;;;;;;5012763;28;20026;-96
2022/04/08 22:18:36;;;;;;;17.60;4.47;;;15.70;99.90;;;;;;5016937;28;20026;-93
2022/04/08 22:21:26;;;;;;;17.58;4.57;;;15.70;99.90;;;;;;5024633;28;20044;-96
2022/04/08 22:24:27;;;;;;;27.05;5.28;;;15.70;99.90;;;;;;5010566;28;20037;-94
2022/04/08 22:27:10;;;;;;;30.30;4.82;;;15.70;99.90;;;;;;5013485;28;20049;-94
2022/04/08 22:29:52;;;;;;;26.00;5.13;;;15.70;99.90;;;;;;5028555;28;20026;-96
2022/04/08 22:39:35;;;;;;;;;;;;;;;;;;;;;
2022/04/08 22:42:11;;;;;;;;;;;15.70;99.90;;;;;;5029146;28;20457;-96
2022/04/08 22:45:00;;;;;;;20.65;4.35;;;15.60;99.90;;;;;;5005704;28;19922;-96
2022/04/08 22:48:06;;;;;;;;;;;;;;;;;;;;;
2022/04/08 22:51:13;;;;;;;24.17;5.10;;;15.70;99.90;;;;;;5025471;28;20034;-96
2022/04/08 22:53:50;;;;;;;19.08;4.10;;;15.60;99.90;;;;;;5009793;28;20039;-94
2022/04/08 22:57:14;;;;;;;23.08;4.32;;;15.70;99.90;;;;;;5037409;28;20006;-96
2022/04/08 23:02:44;;;;;;;14.70;3.42;;;15.60;99.90;;;;;;5039873;28;20064;-95
2022/04/08 23:05:17;;;;;;;18.02;4.00;;;15.70;99.90;;;;;;5044243;28;20038;-93
2022/04/08 23:07:55;;;;;;;18.80;4.35;;;15.70;99.90;;;;;;5030675;28;20060;-96
2022/04/08 23:10:21;;;;;;;23.05;4.05;;;15.60;99.90;;;;;;5030698;28;20030;-96
2022/04/08 23:13:22;;;;;;;21.63;4.82;;;15.60;99.90;;;;;;5019235;28;20018;-96
2022/04/08 23:19:01;;;;;;;26.10;4.75;;;15.60;99.90;;;;;;4995803;28;20038;-96
2022/04/08 23:22:02;;;;;;;;;;;;;;;;;;;;;
2022/04/08 23:24:40;;;;;;;19.17;4.82;;;15.50;99.90;;;;;;5046172;28;20097;-96
2022/04/08 23:27:14;;;;;;;17.00;3.83;;;15.60;99.90;;;;;;5007720;28;20035;-96
2022/04/08 23:30:52;;;;;;;;;;;;;;;;;;;;;
2022/04/08 23:33:32;;;;;;;17.80;4.90;;;15.60;99.90;;;;;;4996744;28;20097;-94
2022/04/08 23:40:01;;;;;;;20.38;5.25;;;15.50;99.90;;;;;;5026889;28;20037;-96
2022/04/08 23:42:27;;;;;;;18.92;4.45;;;15.50;99.90;;;;;;4999728;28;20034;-96
2022/04/08 23:55:28;;;;;;;;;;;;;;;;;;;;;
